Terminal Aerodrome Forecast
Issued by NWS Omaha/Valley, NE

Home | Current Version | Previous Version | Text Only | Print | Product List | Glossary On
Versions: 1 2 3 4 5 6 7 8 9 10 11 12 13 14 15 16 17 18 19 20 21 22 23 24 25 26 27 28 29 30 31 32 33 34 35 36 37 38 39 40 41 42 43
052
FTUS43 KOAX 111859 AAA
TAFOMA
TAF AMD
KOMA 111859Z 1119/1218 14009KT P6SM SCT015 OVC030
      TEMPO 1119/1120 6SM -SN BKN025
     FM112000 15007KT 6SM -SN BKN015 OVC025
      TEMPO 1120/1122 1 1/2SM -SN BR SCT007 OVC015
     FM120100 12006KT 4SM -SN BR OVC015
     FM120500 34008KT 6SM HZ OVC015
     FM121500 34013KT P6SM BKN050=

USA.gov is the U.S. government's official web portal to all federal, state and local government web resources and services.